Time;durP1;ratioP1;P1;durP2;ratioP2;P2;SDS_P1;SDS_P2;PMS_P1;PMS_P2;Temp;Humidity;BMP_temperature;BMP_pressure;BME280_temperature;BME280_humidity;BME280_pressure;Samples;Min_cycle;Max_cycle;Signal;HPM_P1;HPM_P2
2022/08/01 00:01:23;;;;;;;1.30;1.10;;;25.90;83.30;;;;;;5031917;28;20492;-26
2022/08/01 00:03:49;;;;;;;1.40;1.05;;;25.90;83.30;;;;;;5031794;28;20030;-25
2022/08/01 00:06:14;;;;;;;1.40;1.00;;;25.80;83.20;;;;;;5031642;28;20068;-25
2022/08/01 00:08:40;;;;;;;1.02;0.90;;;25.80;83.20;;;;;;5031452;28;20061;-25
2022/08/01 00:11:05;;;;;;;2.28;1.30;;;25.80;83.20;;;;;;5031845;28;20057;-26
2022/08/01 00:13:31;;;;;;;1.92;1.17;;;25.80;83.20;;;;;;5031786;28;20394;-26
2022/08/01 00:15:57;;;;;;;1.75;1.00;;;25.80;83.20;;;;;;5033664;28;20028;-25
2022/08/01 00:18:23;;;;;;;1.27;1.10;;;25.80;83.20;;;;;;5035430;28;20030;-25
2022/08/01 00:20:48;;;;;;;2.28;1.30;;;25.80;83.20;;;;;;5035509;28;20108;-26
2022/08/01 00:23:14;;;;;;;1.35;1.10;;;25.80;83.20;;;;;;5035532;28;20030;-25
2022/08/01 00:25:39;;;;;;;1.50;1.35;;;25.80;83.20;;;;;;5017832;28;20032;-25
2022/08/01 00:28:08;;;;;;;4.03;1.20;;;25.80;83.30;;;;;;5035427;28;20040;-26
2022/08/01 00:30:34;;;;;;;1.13;1.02;;;25.80;83.30;;;;;;5035381;28;20097;-26
2022/08/01 00:33:00;;;;;;;1.35;1.17;;;25.80;83.30;;;;;;5035359;28;20531;-26
2022/08/01 00:35:26;;;;;;;1.33;1.10;;;25.80;83.30;;;;;;5017543;28;20044;-25
2022/08/01 00:37:52;;;;;;;1.48;1.20;;;25.80;83.30;;;;;;5035306;28;20026;-26
2022/08/01 00:40:18;;;;;;;1.52;1.23;;;25.80;83.30;;;;;;5035150;28;20100;-26
2022/08/01 00:42:43;;;;;;;1.42;1.33;;;25.80;83.30;;;;;;5035241;28;20127;-26
2022/08/01 00:45:10;;;;;;;2.60;1.17;;;25.80;83.30;;;;;;5035117;28;20021;-25
2022/08/01 00:47:35;;;;;;;2.80;1.30;;;25.80;83.40;;;;;;5035511;28;20022;-25
2022/08/01 00:50:04;;;;;;;2.47;1.23;;;25.80;83.40;;;;;;5034718;28;20383;-25
2022/08/01 00:52:30;;;;;;;2.25;1.30;;;25.70;83.30;;;;;;5035161;28;20037;-26
2022/08/01 00:54:56;;;;;;;1.13;1.02;;;25.80;83.40;;;;;;5034948;28;20021;-25
2022/08/01 00:57:21;;;;;;;2.42;1.33;;;25.70;83.30;;;;;;5034895;28;20083;-26
2022/08/01 00:59:47;;;;;;;1.50;1.30;;;25.80;83.40;;;;;;5034735;28;20018;-25
2022/08/01 01:02:13;;;;;;;2.15;1.13;;;25.70;83.30;;;;;;5034850;28;20383;-26
2022/08/01 01:04:39;;;;;;;3.17;1.48;;;25.70;83.30;;;;;;5034707;28;20030;-25
2022/08/01 01:07:18;;;;;;;1.63;1.35;;;25.70;83.30;;;;;;5034745;28;20100;-26
2022/08/01 01:10:14;;;;;;;1.50;1.40;;;25.70;83.40;;;;;;5034604;28;20448;-26
2022/08/01 01:12:54;;;;;;;2.05;1.40;;;25.70;83.40;;;;;;5034703;28;20029;-26
2022/08/01 01:15:20;;;;;;;1.35;1.10;;;25.70;83.40;;;;;;5034590;28;20013;-26
2022/08/01 01:17:52;;;;;;;1.75;1.20;;;25.70;83.40;;;;;;5034505;28;20478;-25
2022/08/01 01:20:23;;;;;;;1.35;1.10;;;25.70;83.40;;;;;;5034425;28;20029;-25
2022/08/01 01:23:07;;;;;;;1.98;1.30;;;25.70;83.40;;;;;;5034505;28;20537;-25
2022/08/01 01:25:45;;;;;;;2.08;1.38;;;25.70;83.40;;;;;;5034212;28;20037;-25
2022/08/01 01:28:35;;;;;;;1.30;1.20;;;25.70;83.50;;;;;;5034211;28;20034;-25
2022/08/01 01:31:06;;;;;;;1.55;1.25;;;25.70;83.50;;;;;;5034256;28;20033;-25
2022/08/01 01:33:34;;;;;;;1.95;1.40;;;25.70;83.50;;;;;;5034372;28;20025;-25
2022/08/01 01:36:07;;;;;;;1.65;1.30;;;25.70;83.50;;;;;;5034014;28;20037;-25
2022/08/01 01:38:37;;;;;;;1.37;1.20;;;25.70;83.50;;;;;;5034075;28;20103;-25
2022/08/01 01:41:04;;;;;;;2.58;1.40;;;25.70;83.50;;;;;;5034158;28;20416;-26
2022/08/01 01:43:33;;;;;;;1.80;1.10;;;25.60;83.40;;;;;;5034130;28;20470;-25
2022/08/01 01:45:59;;;;;;;2.42;1.33;;;25.60;83.40;;;;;;5033970;28;20045;-26
2022/08/01 01:48:27;;;;;;;1.55;1.45;;;25.60;83.40;;;;;;5033666;28;20118;-26
2022/08/01 01:50:54;;;;;;;1.73;1.17;;;25.60;83.40;;;;;;5033909;28;20029;-25
2022/08/01 01:53:22;;;;;;;3.05;1.20;;;25.60;83.40;;;;;;5033976;28;20041;-25
2022/08/01 01:55:52;;;;;;;1.23;1.10;;;25.60;83.40;;;;;;5033836;28;20484;-25
2022/08/01 01:58:19;;;;;;;1.60;1.40;;;25.60;83.40;;;;;;5033473;28;20026;-25
2022/08/01 02:00:47;;;;;;;1.48;1.25;;;25.60;83.50;;;;;;5033735;28;20021;-26
2022/08/01 02:03:14;;;;;;;1.73;1.20;;;25.60;83.50;;;;;;5034404;28;20467;-26
2022/08/01 02:05:42;;;;;;;1.40;1.25;;;25.60;83.50;;;;;;5034910;28;20026;-25
2022/08/01 02:08:09;;;;;;;1.75;1.30;;;25.60;83.60;;;;;;5034356;28;20108;-25
2022/08/01 02:10:37;;;;;;;1.58;1.40;;;25.60;83.60;;;;;;5033511;28;20535;-26
2022/08/01 02:13:04;;;;;;;2.60;1.30;;;25.60;83.60;;;;;;5033601;28;20069;-26
2022/08/01 02:15:32;;;;;;;2.40;1.35;;;25.60;83.60;;;;;;5033279;28;20018;-25
2022/08/01 02:18:00;;;;;;;1.67;1.30;;;25.60;83.60;;;;;;5033399;28;20022;-26
2022/08/01 02:20:29;;;;;;;1.70;1.40;;;25.50;83.60;;;;;;5033246;28;20105;-25
2022/08/01 02:23:13;;;;;;;1.73;1.45;;;25.50;83.50;;;;;;5033393;28;20024;-26
2022/08/01 02:25:50;;;;;;;2.13;1.40;;;25.60;83.60;;;;;;5033764;28;20029;-25
2022/08/01 02:28:25;;;;;;;1.50;1.23;;;25.50;83.60;;;;;;5033101;28;20022;-25
2022/08/01 02:30:50;;;;;;;2.35;1.30;;;25.60;83.70;;;;;;5033098;28;20508;-25
2022/08/01 02:33:24;;;;;;;1.35;1.23;;;25.50;83.60;;;;;;5033173;28;20116;-26
2022/08/01 02:35:57;;;;;;;1.60;1.38;;;25.50;83.60;;;;;;5015374;28;20041;-25
2022/08/01 02:38:27;;;;;;;2.13;1.38;;;25.50;83.60;;;;;;5032018;28;20026;-25
2022/08/01 02:40:57;;;;;;;1.52;1.42;;;25.50;83.60;;;;;;5033016;28;20030;-26
2022/08/01 02:43:28;;;;;;;2.40;1.35;;;25.50;83.60;;;;;;5032975;28;20021;-25
2022/08/01 02:45:59;;;;;;;1.92;1.45;;;25.50;83.60;;;;;;5032903;28;20027;-26
2022/08/01 02:48:26;;;;;;;1.50;1.25;;;25.50;83.60;;;;;;5032618;28;20394;-25
2022/08/01 02:50:55;;;;;;;2.13;1.30;;;25.50;83.70;;;;;;5032633;28;20028;-25
2022/08/01 02:53:23;;;;;;;1.48;1.30;;;25.50;83.70;;;;;;5032842;28;20022;-26
2022/08/01 02:55:51;;;;;;;1.42;1.33;;;25.50;83.70;;;;;;5032849;28;20160;-26
2022/08/01 02:58:18;;;;;;;1.95;1.20;;;25.50;83.70;;;;;;5032458;28;20026;-26
2022/08/01 03:00:45;;;;;;;1.67;1.35;;;25.50;83.70;;;;;;5032623;28;20026;-25
2022/08/01 03:03:13;;;;;;;2.08;1.42;;;25.50;83.80;;;;;;5032622;28;20447;-25
2022/08/01 03:05:40;;;;;;;1.27;1.17;;;25.50;83.80;;;;;;5032470;28;20030;-26
2022/08/01 03:08:08;;;;;;;1.70;1.50;;;25.40;83.70;;;;;;5032489;28;20030;-26
2022/08/01 03:10:36;;;;;;;1.83;1.40;;;25.40;83.70;;;;;;5032329;28;20033;-26
2022/08/01 03:13:04;;;;;;;3.35;1.45;;;25.40;83.70;;;;;;5032452;28;20099;-25
2022/08/01 03:15:33;;;;;;;1.67;1.30;;;25.40;83.80;;;;;;5032361;28;20029;-26
2022/08/01 03:18:01;;;;;;;1.52;1.30;;;25.40;83.70;;;;;;5032148;28;20101;-25
2022/08/01 03:20:29;;;;;;;2.65;1.40;;;25.40;84.50;;;;;;5032203;28;20025;-25
2022/08/01 03:22:57;;;;;;;1.70;1.30;;;25.40;83.80;;;;;;5032362;28;20047;-26
2022/08/01 03:25:24;;;;;;;1.60;1.50;;;25.40;83.80;;;;;;5032258;28;20024;-26
2022/08/01 03:27:56;;;;;;;2.20;1.58;;;25.40;83.80;;;;;;5032182;28;20017;-26
2022/08/01 03:30:24;;;;;;;1.58;1.45;;;25.40;83.80;;;;;;5031900;28;20138;-26
2022/08/01 03:32:50;;;;;;;1.40;1.30;;;25.40;83.90;;;;;;5032178;28;20024;-26
2022/08/01 03:35:17;;;;;;;1.38;1.27;;;25.40;83.80;;;;;;5031952;28;20487;-26
2022/08/01 03:37:47;;;;;;;2.05;1.52;;;25.40;83.90;;;;;;5032145;28;20053;-26
2022/08/01 03:40:31;;;;;;;2.65;1.55;;;25.40;83.90;;;;;;5031910;28;20025;-26
2022/08/01 03:43:05;;;;;;;1.55;1.40;;;25.40;83.90;;;;;;5031947;28;20017;-26
2022/08/01 03:45:36;;;;;;;1.35;1.25;;;25.30;83.80;;;;;;5031990;28;20497;-26
2022/08/01 03:48:10;;;;;;;1.67;1.40;;;25.40;84.70;;;;;;5031930;28;20024;-26
2022/08/01 03:50:39;;;;;;;2.05;1.45;;;25.40;84.00;;;;;;5031793;28;20018;-26
2022/08/01 03:53:09;;;;;;;1.30;1.20;;;25.30;83.90;;;;;;5031856;28;20090;-26
2022/08/01 03:55:37;;;;;;;1.40;1.30;;;25.30;83.90;;;;;;5031906;28;20087;-26
2022/08/01 03:58:04;;;;;;;1.38;1.20;;;25.30;83.90;;;;;;5031798;28;20022;-26
2022/08/01 04:00:30;;;;;;;1.63;1.30;;;25.30;84.00;;;;;;5031733;28;20098;-26
2022/08/01 04:02:56;;;;;;;1.42;1.33;;;25.30;84.00;;;;;;5031845;28;20503;-25
2022/08/01 04:05:22;;;;;;;1.52;1.38;;;25.30;84.00;;;;;;5031768;28;20031;-25
2022/08/01 04:07:55;;;;;;;1.77;1.30;;;25.30;84.00;;;;;;5031720;28;20100;-26
2022/08/01 04:10:24;;;;;;;1.67;1.40;;;25.30;84.00;;;;;;5031620;28;20030;-26
2022/08/01 04:12:49;;;;;;;4.18;1.60;;;25.30;84.00;;;;;;5031723;28;20032;-26
2022/08/01 04:15:15;;;;;;;2.10;1.25;;;25.30;84.10;;;;;;5031654;28;20017;-25
2022/08/01 04:17:41;;;;;;;1.50;1.40;;;25.30;84.00;;;;;;5031712;28;20026;-26
2022/08/01 04:20:07;;;;;;;1.60;1.40;;;25.30;84.10;;;;;;5031925;28;20036;-25
2022/08/01 04:22:33;;;;;;;2.63;1.58;;;25.30;84.10;;;;;;5031502;28;20032;-25
2022/08/01 04:25:02;;;;;;;1.50;1.40;;;25.20;84.00;;;;;;5031595;28;20080;-26
2022/08/01 04:27:35;;;;;;;2.38;1.40;;;25.20;84.00;;;;;;5031561;28;20100;-26
2022/08/01 04:30:01;;;;;;;1.52;1.38;;;25.20;84.10;;;;;;5031413;28;20495;-26
2022/08/01 04:32:33;;;;;;;1.77;1.40;;;25.20;84.10;;;;;;5031564;28;20380;-26
2022/08/01 04:35:02;;;;;;;1.77;1.40;;;25.20;84.10;;;;;;5031287;28;20018;-26
2022/08/01 04:37:29;;;;;;;1.80;1.45;;;25.20;84.10;;;;;;5031536;28;20033;-26
2022/08/01 04:39:58;;;;;;;2.35;1.67;;;25.20;84.10;;;;;;5031322;28;20152;-26
2022/08/01 04:42:24;;;;;;;1.63;1.40;;;25.20;84.20;;;;;;5031467;28;20063;-26
2022/08/01 04:44:50;;;;;;;1.58;1.30;;;25.20;84.20;;;;;;5031335;28;20095;-26
2022/08/01 04:47:17;;;;;;;1.77;1.60;;;25.10;84.10;;;;;;5031422;28;20081;-26
2022/08/01 04:49:45;;;;;;;1.67;1.58;;;25.20;84.20;;;;;;5031127;28;20082;-26
2022/08/01 04:52:11;;;;;;;2.00;1.60;;;25.10;84.20;;;;;;5031330;28;20521;-26
2022/08/01 04:54:37;;;;;;;1.67;1.40;;;25.10;84.20;;;;;;5031377;28;20025;-25
2022/08/01 04:57:04;;;;;;;1.55;1.45;;;25.10;84.20;;;;;;5031251;28;20096;-26
2022/08/01 04:59:40;;;;;;;2.20;1.40;;;25.10;84.20;;;;;;5031113;28;20026;-26
2022/08/01 05:02:10;;;;;;;2.20;1.58;;;25.10;84.20;;;;;;5033271;28;20213;-26
2022/08/01 05:04:36;;;;;;;1.58;1.48;;;25.10;84.20;;;;;;5034819;28;20387;-25
2022/08/01 05:07:03;;;;;;;1.70;1.60;;;25.10;84.30;;;;;;5034757;28;20117;-26
2022/08/01 05:09:28;;;;;;;2.15;1.40;;;25.10;84.30;;;;;;5034536;28;20026;-26
2022/08/01 05:11:54;;;;;;;1.98;1.40;;;25.10;84.30;;;;;;5034641;28;20021;-25
2022/08/01 05:14:20;;;;;;;1.60;1.38;;;25.10;84.30;;;;;;5034690;28;20029;-26
2022/08/01 05:16:46;;;;;;;4.30;1.45;;;25.10;84.40;;;;;;5034417;28;20049;-25
2022/08/01 05:19:12;;;;;;;2.05;1.50;;;25.10;84.30;;;;;;5034442;28;20498;-26
2022/08/01 05:21:37;;;;;;;2.03;1.48;;;25.10;84.30;;;;;;5034814;28;20022;-26
2022/08/01 05:24:05;;;;;;;2.88;1.60;;;25.10;84.30;;;;;;5034522;28;20029;-26
2022/08/01 05:26:31;;;;;;;3.20;1.75;;;25.10;84.30;;;;;;5034365;28;20406;-26
2022/08/01 05:28:56;;;;;;;4.35;1.70;;;25.10;84.40;;;;;;5034182;28;20108;-26
2022/08/01 05:31:22;;;;;;;2.08;1.42;;;25.10;84.30;;;;;;5034151;28;20033;-26
2022/08/01 05:33:47;;;;;;;1.83;1.67;;;25.10;84.40;;;;;;5034504;28;20021;-26
2022/08/01 05:36:13;;;;;;;1.70;1.40;;;25.10;84.30;;;;;;5040988;22;20053;-26
2022/08/01 05:38:39;;;;;;;3.08;1.73;;;25.10;84.30;;;;;;5034067;28;20033;-26
2022/08/01 05:41:05;;;;;;;2.55;1.90;;;25.10;84.30;;;;;;5034201;28;20033;-26
2022/08/01 05:43:31;;;;;;;1.88;1.58;;;25.10;84.30;;;;;;5034173;28;20393;-26
2022/08/01 05:45:58;;;;;;;1.67;1.50;;;25.10;84.30;;;;;;5034047;28;20033;-26
2022/08/01 05:48:23;;;;;;;1.85;1.60;;;25.10;84.30;;;;;;5033714;28;20026;-27
2022/08/01 05:50:49;;;;;;;1.60;1.50;;;25.10;84.30;;;;;;5034007;28;20038;-26
2022/08/01 05:53:15;;;;;;;1.95;1.50;;;25.10;84.40;;;;;;5034042;28;20096;-26
2022/08/01 05:55:41;;;;;;;1.70;1.60;;;25.10;84.40;;;;;;5033835;28;20493;-26
2022/08/01 05:58:06;;;;;;;2.25;1.63;;;25.10;84.50;;;;;;5033788;28;20025;-26
2022/08/01 06:00:32;;;;;;;1.40;1.30;;;25.10;84.40;;;;;;5015920;28;20475;-27
2022/08/01 06:02:58;;;;;;;1.88;1.58;;;25.10;84.50;;;;;;5033666;28;20025;-26
2022/08/01 06:05:23;;;;;;;3.58;1.40;;;25.00;84.40;;;;;;5033911;28;20029;-26
2022/08/01 06:07:49;;;;;;;1.67;1.58;;;25.10;84.50;;;;;;5033600;28;20080;-26
2022/08/01 06:10:15;;;;;;;3.92;1.50;;;25.00;84.50;;;;;;5033418;28;20021;-26
2022/08/01 06:12:40;;;;;;;3.05;1.50;;;25.00;84.50;;;;;;5032489;28;20053;-26
2022/08/01 06:15:07;;;;;;;2.47;1.83;;;25.10;84.70;;;;;;5033444;28;20044;-26
2022/08/01 06:17:33;;;;;;;1.55;1.30;;;25.10;84.70;;;;;;5033298;28;20109;-27
2022/08/01 06:19:59;;;;;;;2.58;1.60;;;25.00;84.60;;;;;;5033248;28;20463;-26
2022/08/01 06:22:25;;;;;;;1.98;1.65;;;25.00;84.60;;;;;;5033410;28;20086;-27
2022/08/01 06:24:51;;;;;;;2.20;1.60;;;25.10;84.70;;;;;;5033361;28;20100;-27
2022/08/01 06:27:16;;;;;;;1.50;1.30;;;25.10;84.70;;;;;;5033234;28;20087;-26
2022/08/01 06:29:43;;;;;;;2.75;1.50;;;25.10;84.80;;;;;;5033111;28;20028;-26
2022/08/01 06:32:09;;;;;;;3.20;1.80;;;25.10;84.80;;;;;;5033040;28;20025;-26
2022/08/01 06:34:36;;;;;;;2.08;1.55;;;25.10;84.80;;;;;;5033337;28;20049;-26
2022/08/01 06:37:01;;;;;;;1.70;1.58;;;25.10;84.80;;;;;;5032898;28;20099;-26
2022/08/01 06:39:27;;;;;;;2.35;1.40;;;25.10;84.90;;;;;;5032840;28;20033;-27
2022/08/01 06:41:53;;;;;;;1.67;1.42;;;25.10;84.90;;;;;;5033043;28;20025;-26
2022/08/01 06:44:18;;;;;;;2.90;1.38;;;25.10;84.90;;;;;;5032983;28;20363;-26
2022/08/01 06:46:44;;;;;;;1.73;1.35;;;25.10;84.90;;;;;;5032706;28;20102;-26
2022/08/01 06:49:10;;;;;;;3.80;1.45;;;25.10;84.90;;;;;;5032659;28;20025;-27
2022/08/01 06:51:35;;;;;;;8.10;2.10;;;25.00;87.40;;;;;;5032816;28;20057;-26
2022/08/01 06:54:01;;;;;;;3.70;1.52;;;24.90;88.00;;;;;;5033089;28;20013;-26
2022/08/01 06:56:27;;;;;;;2.47;1.60;;;24.80;87.80;;;;;;5032767;28;20029;-26
2022/08/01 06:58:56;;;;;;;5.05;1.77;;;24.90;87.60;;;;;;5032542;28;20050;-26
2022/08/01 07:01:21;;;;;;;2.50;1.70;;;24.90;87.40;;;;;;5032590;28;20100;-26
2022/08/01 07:03:47;;;;;;;3.10;1.60;;;24.90;87.30;;;;;;5032650;28;20104;-27
2022/08/01 07:06:14;;;;;;;4.38;1.70;;;24.90;87.30;;;;;;5032528;28;20037;-26
2022/08/01 07:08:40;;;;;;;2.95;1.70;;;25.00;87.20;;;;;;5032274;28;20554;-26
2022/08/01 07:11:06;;;;;;;3.30;1.73;;;25.00;87.20;;;;;;5032514;28;20389;-26
2022/08/01 07:13:32;;;;;;;2.30;1.50;;;25.00;87.10;;;;;;5032477;28;20120;-26
2022/08/01 07:15:58;;;;;;;3.08;1.70;;;25.00;87.00;;;;;;5032239;28;20103;-26
2022/08/01 07:18:24;;;;;;;4.32;1.95;;;25.00;86.90;;;;;;5032234;28;20470;-26
2022/08/01 07:20:50;;;;;;;3.58;1.65;;;25.10;86.90;;;;;;5032319;28;20029;-27
2022/08/01 07:23:16;;;;;;;3.67;1.77;;;25.10;86.90;;;;;;5032298;28;20025;-26
2022/08/01 07:25:42;;;;;;;1.92;1.67;;;25.10;86.80;;;;;;5032014;28;20041;-27
2022/08/01 07:28:07;;;;;;;3.42;1.70;;;25.10;86.60;;;;;;5032219;28;20029;-26
2022/08/01 07:30:33;;;;;;;3.35;1.52;;;25.10;86.60;;;;;;5032392;28;20022;-27
2022/08/01 07:32:59;;;;;;;4.20;1.60;;;25.10;86.60;;;;;;5032319;28;20055;-27
2022/08/01 07:35:25;;;;;;;5.30;1.50;;;25.10;86.60;;;;;;5032217;28;20387;-26
2022/08/01 07:37:52;;;;;;;6.32;1.42;;;25.10;86.50;;;;;;5031867;28;20080;-26
2022/08/01 07:40:19;;;;;;;5.97;1.40;;;25.10;86.60;;;;;;5032024;28;20029;-27
2022/08/01 07:42:45;;;;;;;2.58;1.50;;;25.10;86.50;;;;;;5032052;28;20029;-26
2022/08/01 07:45:12;;;;;;;2.45;1.50;;;25.20;86.50;;;;;;5031948;28;20040;-26
2022/08/01 07:47:38;;;;;;;1.52;1.02;;;25.20;86.50;;;;;;5031946;28;20060;-27
2022/08/01 07:50:05;;;;;;;3.00;1.33;;;25.20;86.40;;;;;;5031852;28;20053;-26
2022/08/01 07:52:31;;;;;;;2.20;1.25;;;25.20;86.40;;;;;;5031850;28;20117;-26
2022/08/01 07:54:58;;;;;;;1.50;1.15;;;25.20;86.40;;;;;;5031927;28;20100;-26
2022/08/01 07:57:24;;;;;;;2.60;1.30;;;25.20;86.40;;;;;;5031794;28;20026;-26
2022/08/01 07:59:50;;;;;;;4.47;1.27;;;25.20;86.30;;;;;;5031649;28;20021;-27
2022/08/01 08:02:16;;;;;;;1.60;1.15;;;25.20;86.30;;;;;;5031870;28;20028;-27
2022/08/01 08:04:42;;;;;;;2.58;1.30;;;25.20;86.20;;;;;;5031911;28;20025;-26
2022/08/01 08:07:08;;;;;;;1.98;1.40;;;25.20;86.20;;;;;;5031675;28;20029;-26
2022/08/01 08:09:33;;;;;;;2.33;1.30;;;25.30;86.30;;;;;;5031603;28;20025;-26
2022/08/01 08:11:59;;;;;;;2.28;1.08;;;25.30;86.20;;;;;;5031692;28;20087;-26
2022/08/01 08:14:25;;;;;;;2.55;1.25;;;25.30;86.20;;;;;;5031752;28;20371;-27
2022/08/01 08:16:51;;;;;;;1.42;1.10;;;25.30;86.20;;;;;;5031736;28;20049;-26
2022/08/01 08:19:16;;;;;;;3.28;1.40;;;25.30;86.20;;;;;;5031516;28;20029;-26
2022/08/01 08:21:43;;;;;;;1.42;1.20;;;25.30;86.20;;;;;;5031675;28;20068;-26
2022/08/01 08:24:21;;;;;;;1.65;1.33;;;25.30;86.20;;;;;;5031714;28;20117;-26
2022/08/01 08:26:55;;;;;;;2.75;1.15;;;25.30;86.20;;;;;;5031487;28;20026;-26
2022/08/01 08:29:22;;;;;;;2.28;1.30;;;25.40;87.00;;;;;;5031401;28;20117;-26
2022/08/01 08:31:48;;;;;;;1.80;1.20;;;25.40;86.20;;;;;;5031491;28;20447;-26
2022/08/01 08:34:14;;;;;;;1.10;1.00;;;25.40;86.10;;;;;;5031582;28;20083;-26
2022/08/01 08:36:40;;;;;;;2.72;1.17;;;25.40;86.20;;;;;;5032738;28;20437;-27
2022/08/01 08:39:05;;;;;;;1.73;1.13;;;25.30;86.20;;;;;;5034965;28;20022;-27
2022/08/01 08:41:32;;;;;;;2.35;1.20;;;25.40;86.20;;;;;;5035307;28;20040;-26
2022/08/01 08:43:59;;;;;;;1.90;1.35;;;25.40;86.20;;;;;;5035246;28;20030;-27
2022/08/01 08:46:27;;;;;;;4.03;1.35;;;25.40;86.20;;;;;;5035429;28;20573;-26
2022/08/01 08:48:53;;;;;;;6.85;2.03;;;25.40;87.10;;;;;;5034943;28;20025;-26
2022/08/01 08:51:20;;;;;;;4.43;1.50;;;25.50;87.80;;;;;;5035046;28;20036;-26
2022/08/01 08:53:47;;;;;;;2.55;1.60;;;25.50;87.60;;;;;;5034929;28;20022;-26
2022/08/01 08:56:13;;;;;;;3.38;1.75;;;25.60;87.30;;;;;;5034955;28;20074;-26
2022/08/01 08:58:44;;;;;;;2.75;1.98;;;25.80;87.00;;;;;;5034786;28;20018;-26
2022/08/01 09:01:12;;;;;;;2.35;1.88;;;25.90;86.60;;;;;;5034874;28;20029;-26
2022/08/01 09:03:39;;;;;;;2.28;1.67;;;26.00;86.30;;;;;;5034922;28;20622;-26
2022/08/01 09:06:06;;;;;;;2.83;1.70;;;26.00;86.10;;;;;;5034715;28;20056;-26
2022/08/01 09:08:33;;;;;;;3.63;1.77;;;26.00;85.90;;;;;;5034776;28;20025;-26
2022/08/01 09:10:59;;;;;;;2.83;1.70;;;26.10;85.90;;;;;;5034654;28;20033;-26
2022/08/01 09:13:24;;;;;;;3.15;1.75;;;26.10;85.90;;;;;;5034738;28;20390;-25
2022/08/01 09:15:55;;;;;;;5.97;1.67;;;26.10;85.80;;;;;;5034609;28;20021;-25
2022/08/01 09:18:44;;;;;;;2.00;1.73;;;26.10;85.90;;;;;;5034416;28;20017;-25
2022/08/01 09:21:14;;;;;;;2.05;1.45;;;26.10;85.80;;;;;;5034606;28;20052;-26
2022/08/01 09:23:49;;;;;;;2.63;1.80;;;26.10;85.80;;;;;;5034609;28;20478;-25
2022/08/01 09:26:19;;;;;;;5.38;1.63;;;26.10;85.70;;;;;;5034701;28;20502;-26
2022/08/01 09:28:46;;;;;;;2.72;1.40;;;26.20;85.70;;;;;;5034245;28;20120;-26
2022/08/01 09:31:14;;;;;;;2.40;1.58;;;26.20;85.70;;;;;;5034278;28;20076;-25
2022/08/01 09:33:53;;;;;;;2.05;1.73;;;26.20;85.60;;;;;;5034378;28;20096;-25
2022/08/01 09:36:20;;;;;;;1.90;1.58;;;26.10;85.60;;;;;;5034092;28;20064;-25
2022/08/01 09:38:46;;;;;;;2.63;1.55;;;26.10;85.80;;;;;;5034104;28;20025;-26
2022/08/01 09:41:12;;;;;;;1.95;1.67;;;26.00;85.90;;;;;;5034205;28;20052;-25
2022/08/01 09:43:38;;;;;;;3.00;1.73;;;26.10;85.90;;;;;;5034103;28;20047;-25
2022/08/01 09:46:13;;;;;;;1.80;1.50;;;26.10;85.80;;;;;;5034136;28;20303;-25
2022/08/01 09:48:54;;;;;;;2.00;1.58;;;26.10;85.80;;;;;;5033603;28;20040;-25
2022/08/01 09:51:38;;;;;;;3.47;1.67;;;26.10;85.80;;;;;;5034004;28;20474;-25
2022/08/01 09:54:06;;;;;;;3.95;1.50;;;26.10;85.70;;;;;;5033996;28;20035;-25
2022/08/01 09:56:40;;;;;;;3.58;1.60;;;26.20;85.70;;;;;;5033849;28;20087;-26
2022/08/01 09:59:06;;;;;;;1.45;1.35;;;26.20;85.60;;;;;;5033702;28;20017;-25
2022/08/01 10:01:49;;;;;;;1.63;1.35;;;26.20;85.60;;;;;;5033873;28;20033;-25
2022/08/01 10:04:20;;;;;;;2.05;1.60;;;26.20;85.60;;;;;;5033757;28;20022;-25
2022/08/01 10:06:52;;;;;;;1.88;1.38;;;26.20;85.60;;;;;;5033519;28;20021;-26
2022/08/01 10:09:28;;;;;;;2.08;1.80;;;26.20;85.60;;;;;;5033533;28;20417;-25
2022/08/01 10:11:55;;;;;;;1.70;1.40;;;26.20;86.30;;;;;;5033543;28;20025;-25
2022/08/01 10:14:24;;;;;;;3.30;1.25;;;26.20;85.50;;;;;;5033579;28;20021;-26
2022/08/01 10:16:53;;;;;;;1.80;1.58;;;26.20;85.40;;;;;;5033597;28;20056;-25
2022/08/01 10:19:21;;;;;;;3.20;1.63;;;26.30;85.40;;;;;;5033063;28;20057;-25
2022/08/01 10:21:49;;;;;;;3.38;1.50;;;26.20;85.40;;;;;;5033435;28;20025;-25
2022/08/01 10:24:17;;;;;;;2.35;1.45;;;26.20;85.40;;;;;;5033350;28;20032;-25
2022/08/01 10:26:45;;;;;;;2.03;1.67;;;26.20;85.50;;;;;;5033280;28;20022;-25
2022/08/01 10:29:13;;;;;;;1.63;1.38;;;26.20;85.50;;;;;;5033084;28;20116;-26
2022/08/01 10:31:39;;;;;;;2.47;1.70;;;26.20;85.50;;;;;;5033072;28;20026;-25
2022/08/01 10:34:05;;;;;;;1.75;1.60;;;26.20;85.50;;;;;;5033127;28;20498;-25
2022/08/01 10:36:32;;;;;;;2.30;1.60;;;26.30;85.60;;;;;;5033175;28;20030;-25
2022/08/01 10:38:58;;;;;;;2.20;2.00;;;26.30;85.50;;;;;;5032877;28;20033;-26
2022/08/01 10:41:25;;;;;;;2.35;1.38;;;26.30;85.40;;;;;;5033047;28;20502;-25
2022/08/01 10:43:51;;;;;;;1.40;1.30;;;26.30;85.30;;;;;;5032990;28;20033;-25
2022/08/01 10:46:19;;;;;;;1.58;1.48;;;26.30;85.20;;;;;;5033258;28;20032;-25
2022/08/01 10:48:54;;;;;;;1.70;1.60;;;26.30;85.30;;;;;;5032668;28;20037;-25
2022/08/01 10:51:21;;;;;;;1.60;1.50;;;26.40;85.30;;;;;;5032716;28;20022;-25
2022/08/01 10:53:50;;;;;;;2.05;1.65;;;26.30;85.30;;;;;;5032835;28;20018;-25
2022/08/01 10:56:17;;;;;;;2.58;1.60;;;26.20;85.50;;;;;;5032776;28;20029;-25
2022/08/01 10:58:43;;;;;;;2.20;1.58;;;26.20;85.60;;;;;;5031896;28;20017;-25
2022/08/01 11:01:21;;;;;;;1.48;1.30;;;26.20;85.70;;;;;;5032656;28;20026;-25
2022/08/01 11:04:11;;;;;;;2.17;1.60;;;26.20;85.70;;;;;;5032658;28;20036;-25
2022/08/01 11:06:37;;;;;;;2.00;1.80;;;26.10;85.80;;;;;;5032561;28;20450;-25
2022/08/01 11:09:11;;;;;;;2.45;1.50;;;26.20;85.80;;;;;;5032296;28;20105;-25
2022/08/01 11:11:56;;;;;;;1.58;1.48;;;26.20;85.70;;;;;;5024999;28;20564;-26
2022/08/01 11:14:21;;;;;;;;;;;26.20;85.70;;;;;;5033884;28;20382;-25
2022/08/01 11:16:47;;;;;;;1.60;1.50;;;26.10;85.70;;;;;;5046500;28;20377;-26
2022/08/01 11:19:13;;;;;;;1.92;1.70;;;26.20;85.80;;;;;;5031759;28;20029;-25
2022/08/01 11:21:54;;;;;;;2.78;1.83;;;26.20;85.80;;;;;;5031720;28;20033;-25
2022/08/01 11:24:48;;;;;;;2.40;1.63;;;26.10;85.80;;;;;;5033437;28;20036;-25
2022/08/01 11:27:17;;;;;;;2.15;1.45;;;26.20;85.70;;;;;;5052022;28;20025;-25
2022/08/01 11:29:43;;;;;;;2.03;1.77;;;26.20;85.60;;;;;;5043949;28;20040;-25
2022/08/01 11:32:25;;;;;;;4.15;1.70;;;26.20;85.60;;;;;;5031896;28;20029;-26
2022/08/01 11:34:55;;;;;;;1.60;1.50;;;26.30;85.60;;;;;;5032238;28;20478;-25
2022/08/01 11:37:28;;;;;;;2.30;1.77;;;26.30;85.50;;;;;;5067830;23;20049;-25
2022/08/01 11:40:19;;;;;;;3.50;1.60;;;26.40;85.40;;;;;;5031905;28;20490;-25
2022/08/01 11:42:45;;;;;;;1.83;1.70;;;26.50;85.40;;;;;;5032095;28;20034;-25
2022/08/01 11:45:11;;;;;;;1.83;1.30;;;26.40;85.20;;;;;;5031924;28;20417;-25
2022/08/01 11:47:42;;;;;;;1.90;1.80;;;26.40;85.20;;;;;;5031894;28;20079;-25
2022/08/01 11:50:28;;;;;;;1.60;1.50;;;26.40;85.30;;;;;;5031763;28;20022;-25
2022/08/01 11:53:02;;;;;;;2.00;1.80;;;26.40;85.40;;;;;;5031792;28;20056;-25
2022/08/01 11:55:29;;;;;;;2.10;1.80;;;26.40;85.40;;;;;;5031877;28;20082;-25
2022/08/01 11:58:05;;;;;;;3.28;1.90;;;26.30;85.30;;;;;;5031795;28;20036;-25
2022/08/01 12:00:32;;;;;;;1.50;1.40;;;26.30;85.40;;;;;;5031767;28;20063;-25
2022/08/01 12:03:05;;;;;;;2.15;1.73;;;26.30;85.40;;;;;;5031823;28;20467;-25
2022/08/01 12:05:33;;;;;;;1.48;1.38;;;26.40;85.40;;;;;;5031911;28;20034;-25
2022/08/01 12:08:00;;;;;;;1.75;1.65;;;26.40;85.30;;;;;;5031544;28;20402;-25
2022/08/01 12:10:35;;;;;;;1.90;1.80;;;26.40;85.20;;;;;;5032840;28;20021;-25
2022/08/01 12:13:03;;;;;;;1.88;1.65;;;26.50;85.10;;;;;;5035846;28;20076;-25
2022/08/01 12:15:32;;;;;;;2.65;1.60;;;26.50;85.00;;;;;;5035817;28;20028;-25
2022/08/01 12:18:00;;;;;;;1.70;1.60;;;26.50;84.90;;;;;;5035803;28;20025;-25
2022/08/01 12:20:31;;;;;;;1.75;1.58;;;26.60;84.80;;;;;;5035457;28;20021;-25
2022/08/01 12:22:59;;;;;;;2.95;1.60;;;26.70;84.80;;;;;;5035714;28;20101;-25
2022/08/01 12:25:25;;;;;;;1.88;1.77;;;26.70;84.70;;;;;;5035717;28;20029;-25
2022/08/01 12:27:52;;;;;;;1.55;1.45;;;26.70;84.70;;;;;;5035529;28;20083;-25
2022/08/01 12:30:22;;;;;;;2.05;1.85;;;26.70;84.80;;;;;;5035350;28;20072;-25
2022/08/01 12:32:49;;;;;;;1.58;1.48;;;26.70;84.80;;;;;;5035439;28;20025;-25
2022/08/01 12:35:17;;;;;;;2.28;1.70;;;26.70;84.80;;;;;;5035387;28;20037;-25
2022/08/01 12:37:43;;;;;;;2.15;1.77;;;26.70;84.90;;;;;;5035272;28;20156;-25
2022/08/01 12:40:30;;;;;;;2.03;1.83;;;26.70;84.80;;;;;;5035235;28;20044;-25
2022/08/01 12:43:02;;;;;;;1.77;1.60;;;26.70;84.70;;;;;;5035211;28;20036;-25
2022/08/01 12:45:42;;;;;;;1.70;1.60;;;26.70;84.60;;;;;;5035194;28;20022;-25
2022/08/01 12:48:13;;;;;;;1.95;1.70;;;26.70;85.40;;;;;;5035050;28;20029;-25
2022/08/01 12:50:42;;;;;;;1.73;1.63;;;26.80;84.60;;;;;;5035203;28;20029;-25
2022/08/01 12:53:09;;;;;;;2.03;1.80;;;26.80;84.50;;;;;;5035118;28;20026;-25
2022/08/01 12:55:45;;;;;;;1.50;1.40;;;26.80;84.40;;;;;;5035150;28;20418;-25